VTF YBAF-YBBN
Flight info
| Callsign | VTF |
|---|---|
| Flight time | 0h 9m |
| Altitude | 7000 |
| Route | DUNNI |
| Aircraft | PC24/L-SDFGRWY/S |
Departure
| Time | 2026-05-05 09:30 |
|---|---|
| Airport | Brisbane Archerfield Airport (YBAF) |
Arrival
| Time | 2026-05-05 09:39 |
|---|---|
| Airport | Brisbane International Airport (YBBN) |
| Time | Latitude | Longitude | Altitude | Speed | Heading |
|---|---|---|---|---|---|
| 2026-05-05 09:27 | -27.56896 | 152.99800 | 42 ft | 0 kts | 281° |
| 2026-05-05 09:27 | -27.56904 | 152.99785 | 43 ft | 6 kts | 241° |
| 2026-05-05 09:28 | -27.56965 | 152.99779 | 43 ft | 14 kts | 104° |
| 2026-05-05 09:28 | -27.57000 | 152.99913 | 40 ft | 24 kts | 105° |
| 2026-05-05 09:28 | -27.57094 | 153.00239 | 39 ft | 63 kts | 104° |
| 2026-05-05 09:28 | -27.57211 | 153.00659 | 39 ft | 51 kts | 109° |
| 2026-05-05 09:29 | -27.57314 | 153.01010 | 35 ft | 42 kts | 108° |
| 2026-05-05 09:29 | -27.57417 | 153.01287 | 36 ft | 32 kts | 133° |
| 2026-05-05 09:29 | -27.57480 | 153.01270 | 33 ft | 16 kts | 300° |
| 2026-05-05 09:29 | -27.57373 | 153.00910 | 33 ft | 94 kts | 287° |
| 2026-05-05 09:30 | -27.57089 | 152.99928 | 208 ft | 159 kts | 289° |
| 2026-05-05 09:30 | -27.56692 | 152.98756 | 1067 ft | 156 kts | 283° |
| 2026-05-05 09:30 | -27.57024 | 152.97670 | 2067 ft | 152 kts | 214° |
| 2026-05-05 09:30 | -27.58020 | 152.97436 | 3235 ft | 151 kts | 174° |
| 2026-05-05 09:31 | -27.58891 | 152.98058 | 4516 ft | 153 kts | 131° |
| 2026-05-05 09:31 | -27.59295 | 152.99164 | 5754 ft | 165 kts | 100° |
| 2026-05-05 09:31 | -27.59430 | 153.00662 | 5797 ft | 209 kts | 99° |
| 2026-05-05 09:31 | -27.59583 | 153.02303 | 6255 ft | 211 kts | 99° |
| 2026-05-05 09:32 | -27.59760 | 153.04018 | 6393 ft | 228 kts | 100° |
| 2026-05-05 09:32 | -27.59955 | 153.05740 | 6284 ft | 212 kts | 102° |
| 2026-05-05 09:32 | -27.60648 | 153.07156 | 5700 ft | 211 kts | 144° |
| 2026-05-05 09:32 | -27.61984 | 153.07628 | 5293 ft | 205 kts | 177° |
| 2026-05-05 09:33 | -27.63410 | 153.07568 | 4745 ft | 206 kts | 194° |
| 2026-05-05 09:33 | -27.64531 | 153.06604 | 4305 ft | 210 kts | 239° |
| 2026-05-05 09:33 | -27.64729 | 153.04996 | 3880 ft | 215 kts | 283° |
| 2026-05-05 09:33 | -27.63863 | 153.03665 | 3587 ft | 214 kts | 330° |
| 2026-05-05 09:34 | -27.62465 | 153.03347 | 3513 ft | 204 kts | 2° |
| 2026-05-05 09:34 | -27.61026 | 153.03338 | 3508 ft | 208 kts | 354° |
| 2026-05-05 09:34 | -27.59621 | 153.02954 | 3496 ft | 209 kts | 340° |
| 2026-05-05 09:34 | -27.58258 | 153.02396 | 3497 ft | 209 kts | 349° |
| 2026-05-05 09:35 | -27.56829 | 153.02476 | 3512 ft | 209 kts | 14° |
| 2026-05-05 09:35 | -27.54219 | 153.03814 | 3223 ft | 208 kts | 28° |
| 2026-05-05 09:35 | -27.52931 | 153.04554 | 3122 ft | 207 kts | 28° |
| 2026-05-05 09:36 | -27.51646 | 153.05294 | 2937 ft | 211 kts | 28° |
| 2026-05-05 09:36 | -27.50334 | 153.06055 | 2437 ft | 212 kts | 28° |
| 2026-05-05 09:36 | -27.49054 | 153.06793 | 1933 ft | 199 kts | 28° |
| 2026-05-05 09:36 | -27.47864 | 153.07478 | 1666 ft | 183 kts | 28° |
| 2026-05-05 09:37 | -27.46817 | 153.08070 | 1427 ft | 156 kts | 28° |
| 2026-05-05 09:37 | -27.45882 | 153.08606 | 1261 ft | 144 kts | 28° |
| 2026-05-05 09:37 | -27.44993 | 153.09116 | 1067 ft | 138 kts | 28° |
| 2026-05-05 09:37 | -27.44178 | 153.09583 | 885 ft | 126 kts | 28° |
| 2026-05-05 09:38 | -27.43418 | 153.10017 | 698 ft | 123 kts | 28° |
| 2026-05-05 09:38 | -27.42657 | 153.10453 | 510 ft | 123 kts | 28° |
| 2026-05-05 09:38 | -27.41901 | 153.10888 | 308 ft | 122 kts | 27° |
| 2026-05-05 09:38 | -27.41141 | 153.11324 | 120 ft | 123 kts | 27° |
| 2026-05-05 09:39 | -27.40389 | 153.11761 | 85 ft | 119 kts | 26° |
| 2026-05-05 09:39 | -27.39745 | 153.12126 | 17 ft | 78 kts | 26° |
| 2026-05-05 09:39 | -27.39514 | 153.12256 | 16 ft | 7 kts | 89° |
| 2026-05-05 09:39 | -27.39616 | 153.12226 | 16 ft | 25 kts | 163° |
| 2026-05-05 09:40 | -27.39695 | 153.12376 | 14 ft | 23 kts | 116° |
| 2026-05-05 09:40 | -27.39767 | 153.12529 | 13 ft | 22 kts | 115° |
| 2026-05-05 09:40 | -27.39783 | 153.12675 | 13 ft | 20 kts | 49° |
| 2026-05-05 09:40 | -27.39711 | 153.12795 | 13 ft | 21 kts | 105° |
| 2026-05-05 09:41 | -27.39740 | 153.12914 | 13 ft | 1 kts | 111° |
| 2026-05-05 09:41 | -27.39751 | 153.12943 | 13 ft | 7 kts | 115° |
| 2026-05-05 09:41 | -27.39766 | 153.12984 | 13 ft | 1 kts | 143° |
| 2026-05-05 09:42 | -27.39771 | 153.12980 | 13 ft | 1 kts | 245° |
| 2026-05-05 09:42 | -27.39769 | 153.12975 | 13 ft | 0 kts | 294° |